createdAt,value
2018-04-18T00:01:22.670Z,14.37
2018-04-18T00:03:51.040Z,14.26
2018-04-18T00:06:18.513Z,14.27
2018-04-18T00:08:46.006Z,14.24
2018-04-18T00:11:13.515Z,14.27
2018-04-18T00:13:41.017Z,14.30
2018-04-18T00:16:08.979Z,14.27
2018-04-18T00:18:36.465Z,14.18
2018-04-18T00:21:03.956Z,14.13
2018-04-18T00:23:31.485Z,14.13
2018-04-18T00:25:58.973Z,14.19
2018-04-18T00:28:26.511Z,14.18
2018-04-18T00:30:54.026Z,14.14
2018-04-18T00:33:21.526Z,14.01
2018-04-18T00:35:49.030Z,14.06
2018-04-18T00:38:16.510Z,13.98
2018-04-18T00:40:43.994Z,13.87
2018-04-18T00:43:11.584Z,13.96
2018-04-18T00:45:39.240Z,13.90
2018-04-18T00:48:06.729Z,13.87
2018-04-18T00:50:34.682Z,13.88
2018-04-18T00:53:02.170Z,13.85
2018-04-18T00:55:29.647Z,13.85
2018-04-18T00:57:57.139Z,13.77
2018-04-18T01:00:24.649Z,13.76
2018-04-18T01:02:52.115Z,13.76
2018-04-18T01:05:19.630Z,13.70
2018-04-18T01:07:47.139Z,13.61
2018-04-18T01:10:14.687Z,13.54
2018-04-18T01:12:42.172Z,13.48
2018-04-18T01:15:09.662Z,13.40
2018-04-18T01:17:37.189Z,13.32
2018-04-18T01:20:04.683Z,13.33
2018-04-18T01:22:32.169Z,13.44
2018-04-18T01:24:59.689Z,13.40
2018-04-18T01:27:27.206Z,13.41
2018-04-18T01:29:54.689Z,13.39
2018-04-18T01:32:22.196Z,13.33
2018-04-18T01:34:49.673Z,13.32
2018-04-18T01:37:17.158Z,13.33
2018-04-18T01:39:44.634Z,13.25
2018-04-18T01:42:12.142Z,13.26
2018-04-18T01:44:39.614Z,13.13
2018-04-18T01:47:07.114Z,13.22
2018-04-18T01:49:34.605Z,13.13
2018-04-18T01:52:02.083Z,13.01
2018-04-18T01:54:29.581Z,12.99
2018-04-18T01:56:57.106Z,12.90
2018-04-18T01:59:24.698Z,12.82
2018-04-18T02:01:52.163Z,12.85
2018-04-18T02:04:19.639Z,12.79
2018-04-18T02:06:47.131Z,12.79
2018-04-18T02:09:14.631Z,12.72
2018-04-18T02:11:42.180Z,12.59
2018-04-18T02:14:09.667Z,12.54
2018-04-18T02:16:37.168Z,12.71
2018-04-18T02:19:04.661Z,12.68
2018-04-18T02:21:32.143Z,12.82
2018-04-18T02:23:59.657Z,12.93
2018-04-18T02:26:27.126Z,12.75
2018-04-18T02:28:54.600Z,12.55
2018-04-18T02:31:22.107Z,12.59
2018-04-18T02:33:49.581Z,12.48
2018-04-18T02:36:17.079Z,12.46
2018-04-18T02:38:44.545Z,12.54
2018-04-18T02:41:12.020Z,12.40
2018-04-18T02:43:39.498Z,12.50
2018-04-18T02:46:06.993Z,12.72
2018-04-18T02:48:34.460Z,12.88
2018-04-18T02:51:01.957Z,12.87
2018-04-18T02:53:29.422Z,12.99
2018-04-18T02:55:56.933Z,12.81
2018-04-18T02:58:24.426Z,12.68
2018-04-18T03:00:51.922Z,12.59
2018-04-18T03:03:19.451Z,12.51
2018-04-18T03:05:47.686Z,12.67
2018-04-18T03:08:15.142Z,12.49
2018-04-18T03:10:42.616Z,12.49
2018-04-18T03:13:10.082Z,12.57
2018-04-18T03:15:37.579Z,12.45
2018-04-18T03:18:05.049Z,12.42
2018-04-18T03:20:32.909Z,12.48
2018-04-18T03:23:00.473Z,12.54
2018-04-18T03:25:27.926Z,12.52
2018-04-18T03:27:55.442Z,12.48
2018-04-18T03:30:23.401Z,12.60
2018-04-18T03:32:50.874Z,12.60
2018-04-18T03:35:18.351Z,12.74
2018-04-18T03:37:45.858Z,12.64
2018-04-18T03:40:13.322Z,12.79
2018-04-18T03:42:41.025Z,12.66
2018-04-18T03:45:08.511Z,12.65
2018-04-18T03:47:36.008Z,12.61
2018-04-18T03:50:03.501Z,12.69
2018-04-18T03:52:30.985Z,12.60
2018-04-18T03:54:58.457Z,12.48
2018-04-18T03:57:25.928Z,12.61
2018-04-18T03:59:53.397Z,12.60
2018-04-18T04:02:20.880Z,12.55
2018-04-18T04:04:48.427Z,12.46
2018-04-18T04:09:49.569Z,12.48
2018-04-18T04:12:17.034Z,12.51
2018-04-18T04:14:44.539Z,12.52
2018-04-18T04:17:23.793Z,12.61
2018-04-18T04:20:03.113Z,12.65
2018-04-18T04:22:42.434Z,12.64
2018-04-18T04:25:09.906Z,12.66
2018-04-18T04:27:37.364Z,12.59
2018-04-18T04:30:05.718Z,12.67
2018-04-18T04:32:33.169Z,12.62
2018-04-18T04:35:00.658Z,12.72
2018-04-18T04:37:28.130Z,12.68
2018-04-18T04:39:55.908Z,12.78
2018-04-18T04:42:23.418Z,12.75
2018-04-18T04:44:50.914Z,12.89
2018-04-18T04:47:18.385Z,12.88
2018-04-18T04:49:45.880Z,12.98
2018-04-18T04:52:13.349Z,13.01
2018-04-18T04:54:40.812Z,12.94
2018-04-18T04:57:08.283Z,13.01
2018-04-18T04:59:35.756Z,13.09
2018-04-18T05:02:03.205Z,13.10
2018-04-18T05:04:30.764Z,13.10
2018-04-18T05:06:59.289Z,13.18
2018-04-18T05:09:26.825Z,13.29
2018-04-18T05:11:54.311Z,13.49
2018-04-18T05:14:21.803Z,13.54
2018-04-18T05:16:49.277Z,13.49
2018-04-18T05:19:16.778Z,13.54
2018-04-18T05:21:44.242Z,13.56
2018-04-18T05:24:11.731Z,13.72
2018-04-18T05:26:39.184Z,13.88
2018-04-18T05:29:06.658Z,13.89
2018-04-18T05:31:34.126Z,13.98
2018-04-18T05:34:01.604Z,13.99
2018-04-18T05:36:29.092Z,14.04
2018-04-18T05:38:56.578Z,14.11
2018-04-18T05:41:24.095Z,14.26
2018-04-18T05:43:51.578Z,14.36
2018-04-18T05:46:19.076Z,14.58
2018-04-18T05:48:46.555Z,14.49
2018-04-18T05:51:14.050Z,14.68
2018-04-18T05:53:41.522Z,14.67
2018-04-18T05:56:09.012Z,14.76
2018-04-18T05:58:36.539Z,14.82
2018-04-18T06:01:04.097Z,14.88
2018-04-18T06:03:31.574Z,14.99
2018-04-18T06:05:59.030Z,15.04
2018-04-18T06:08:26.501Z,14.98
2018-04-18T06:10:54.035Z,15.13
2018-04-18T06:13:21.503Z,15.24
2018-04-18T06:15:48.992Z,15.25
2018-04-18T06:18:16.469Z,15.34
2018-04-18T06:20:44.037Z,15.31
2018-04-18T06:23:11.531Z,15.29
2018-04-18T06:28:05.964Z,15.48
2018-04-18T06:30:33.499Z,15.56
2018-04-18T06:33:01.013Z,15.64
2018-04-18T06:35:28.488Z,15.66
2018-04-18T06:37:56.151Z,15.86
2018-04-18T06:40:23.638Z,15.93
2018-04-18T06:42:51.846Z,15.93
2018-04-18T06:45:19.321Z,16.12
2018-04-18T06:47:46.819Z,16.05
2018-04-18T06:50:14.376Z,16.24
2018-04-18T06:52:41.853Z,16.39
2018-04-18T06:55:09.351Z,16.35
2018-04-18T06:57:36.878Z,16.43
2018-04-18T07:00:04.375Z,16.56
2018-04-18T07:02:31.856Z,16.36
2018-04-18T07:04:59.340Z,16.39
2018-04-18T07:07:26.804Z,16.54
2018-04-18T07:09:54.341Z,16.42
2018-04-18T07:12:21.815Z,16.35
2018-04-18T07:14:49.314Z,16.53
2018-04-18T07:17:16.807Z,16.61
2018-04-18T07:19:44.293Z,16.82
2018-04-18T07:22:12.189Z,16.78
2018-04-18T07:24:39.689Z,16.73
2018-04-18T07:27:07.158Z,16.79
2018-04-18T07:29:34.657Z,16.79
2018-04-18T07:32:02.186Z,16.78
2018-04-18T07:34:29.698Z,16.94
2018-04-18T07:36:57.194Z,17.04
2018-04-18T07:39:24.676Z,17.08
2018-04-18T07:41:52.145Z,17.08
2018-04-18T07:44:19.631Z,17.02
2018-04-18T07:46:47.118Z,16.92
2018-04-18T07:49:14.603Z,16.87
2018-04-18T07:51:42.106Z,16.98
2018-04-18T07:54:09.620Z,16.95
2018-04-18T07:56:37.123Z,16.77
2018-04-18T07:59:04.590Z,16.98
2018-04-18T08:01:32.087Z,16.99
2018-04-18T08:03:59.572Z,17.09
2018-04-18T08:06:27.086Z,17.07
2018-04-18T08:08:54.564Z,17.09
2018-04-18T08:11:22.107Z,17.24
2018-04-18T08:13:49.598Z,17.22
2018-04-18T08:16:17.079Z,17.16
2018-04-18T08:18:44.622Z,17.19
2018-04-18T08:21:12.235Z,17.14
2018-04-18T08:23:39.728Z,17.22
2018-04-18T08:26:07.418Z,17.07
2018-04-18T08:28:34.941Z,17.24
2018-04-18T08:31:02.443Z,17.42
2018-04-18T08:33:29.951Z,17.52
2018-04-18T08:35:57.431Z,17.55
2018-04-18T08:38:24.917Z,17.58
2018-04-18T08:40:52.469Z,17.54
2018-04-18T08:43:19.933Z,17.59
2018-04-18T08:45:47.406Z,17.60
2018-04-18T08:48:14.953Z,17.82
2018-04-18T08:50:42.445Z,18.09
2018-04-18T08:53:09.933Z,18.04
2018-04-18T08:55:37.417Z,18.16
2018-04-18T08:58:04.887Z,18.28
2018-04-18T09:00:32.465Z,18.12
2018-04-18T09:02:59.961Z,18.41
2018-04-18T09:05:27.455Z,18.47
2018-04-18T09:07:54.936Z,18.64
2018-04-18T09:10:22.411Z,18.84
2018-04-18T09:12:49.875Z,18.74
2018-04-18T09:15:17.407Z,18.56
2018-04-18T09:17:44.894Z,18.89
2018-04-18T09:20:12.391Z,19.00
2018-04-18T09:22:39.903Z,19.17
2018-04-18T09:25:07.395Z,19.28
2018-04-18T09:27:34.872Z,18.94
2018-04-18T09:30:02.342Z,18.89
2018-04-18T09:32:29.890Z,18.71
2018-04-18T09:34:57.395Z,18.92
2018-04-18T09:37:24.930Z,19.04
2018-04-18T09:39:52.417Z,19.02
2018-04-18T09:42:19.921Z,19.34
2018-04-18T09:44:47.419Z,19.36
2018-04-18T09:47:14.931Z,19.60
2018-04-18T09:49:42.399Z,19.36
2018-04-18T09:52:09.965Z,19.46
2018-04-18T09:54:37.473Z,19.60
2018-04-18T09:57:04.963Z,19.38
2018-04-18T09:59:32.453Z,19.21
2018-04-18T10:02:05.521Z,19.15
2018-04-18T10:04:33.001Z,19.37
2018-04-18T10:07:00.535Z,19.26
2018-04-18T10:09:28.005Z,19.62
2018-04-18T10:11:55.479Z,19.84
2018-04-18T10:14:22.989Z,20.16
2018-04-18T10:16:50.502Z,19.99
2018-04-18T10:19:17.970Z,20.08
2018-04-18T10:21:45.522Z,20.28
2018-04-18T10:24:13.019Z,20.01
2018-04-18T10:26:40.577Z,19.85
2018-04-18T10:29:08.111Z,19.88
2018-04-18T10:31:35.718Z,19.73
2018-04-18T10:34:03.161Z,19.82
2018-04-18T10:36:30.829Z,19.93
2018-04-18T10:38:58.310Z,20.19
2018-04-18T10:41:25.795Z,20.08
2018-04-18T10:43:53.297Z,19.93
2018-04-18T10:46:20.818Z,20.21
2018-04-18T10:48:48.305Z,20.32
2018-04-18T10:51:15.781Z,20.31
2018-04-18T10:53:43.297Z,20.06
2018-04-18T10:56:10.831Z,20.27
2018-04-18T10:58:38.370Z,20.15
2018-04-18T11:01:05.812Z,20.34
2018-04-18T11:03:33.297Z,20.70
2018-04-18T11:06:00.822Z,20.78
2018-04-18T11:08:28.336Z,20.93
2018-04-18T11:10:55.801Z,21.12
2018-04-18T11:13:23.306Z,20.81
2018-04-18T11:15:50.781Z,20.67
2018-04-18T11:18:18.358Z,20.75
2018-04-18T11:20:45.839Z,20.97
2018-04-18T11:23:13.311Z,21.16
2018-04-18T11:25:40.823Z,21.30
2018-04-18T11:28:08.326Z,21.37
2018-04-18T11:30:35.801Z,21.54
2018-04-18T11:33:03.282Z,21.35
2018-04-18T11:35:30.774Z,21.44
2018-04-18T11:37:58.314Z,20.99
2018-04-18T11:40:25.790Z,21.24
2018-04-18T11:42:53.280Z,21.26
2018-04-18T11:45:20.782Z,21.28
2018-04-18T11:47:48.266Z,21.47
2018-04-18T11:50:15.750Z,21.39
2018-04-18T11:52:43.296Z,21.43
2018-04-18T11:55:10.779Z,21.38
2018-04-18T11:57:38.317Z,21.61
2018-04-18T12:00:05.817Z,21.63
2018-04-18T12:02:33.320Z,21.76
2018-04-18T12:05:00.782Z,21.93
2018-04-18T12:07:28.310Z,22.11
2018-04-18T12:09:55.823Z,22.38
2018-04-18T12:12:23.293Z,22.01
2018-04-18T12:14:50.812Z,22.33
2018-04-18T12:17:18.283Z,22.39
2018-04-18T12:19:45.739Z,22.76
2018-04-18T12:22:13.293Z,22.53
2018-04-18T12:24:40.764Z,22.86
2018-04-18T12:27:08.236Z,22.73
2018-04-18T12:29:35.768Z,23.10
2018-04-18T12:32:03.235Z,23.26
2018-04-18T12:34:30.840Z,23.31
2018-04-18T12:36:58.365Z,23.37
2018-04-18T12:39:25.827Z,23.56
2018-04-18T12:41:53.303Z,23.39
2018-04-18T12:44:20.775Z,23.92
2018-04-18T12:46:48.268Z,24.29
2018-04-18T12:49:15.734Z,23.84
2018-04-18T12:51:43.232Z,23.88
2018-04-18T12:54:10.723Z,23.71
2018-04-18T12:56:38.206Z,23.73
2018-04-18T12:59:05.723Z,23.87
2018-04-18T13:01:33.231Z,24.28
2018-04-18T13:04:00.779Z,24.62
2018-04-18T13:06:28.301Z,23.97
2018-04-18T13:08:55.751Z,24.22
2018-04-18T13:11:23.248Z,24.08
2018-04-18T13:13:51.491Z,24.51
2018-04-18T13:16:18.965Z,24.53
2018-04-18T13:18:46.451Z,24.65
2018-04-18T13:21:13.913Z,24.58
2018-04-18T13:23:41.419Z,25.04
2018-04-18T13:26:08.923Z,25.25
2018-04-18T13:28:36.444Z,25.54
2018-04-18T13:31:03.920Z,25.66
2018-04-18T13:33:31.819Z,25.40
2018-04-18T13:35:59.354Z,25.22
2018-04-18T13:38:26.816Z,24.72
2018-04-18T13:40:54.343Z,24.45
2018-04-18T13:43:21.823Z,24.47
2018-04-18T13:45:49.924Z,24.55
2018-04-18T13:48:17.452Z,25.10
2018-04-18T13:50:44.952Z,25.38
2018-04-18T13:53:12.474Z,25.28
2018-04-18T13:55:39.981Z,25.61
2018-04-18T13:58:07.448Z,25.86
2018-04-18T14:00:34.945Z,25.85
2018-04-18T14:03:02.418Z,25.57
2018-04-18T14:05:29.979Z,25.90
2018-04-18T14:07:57.455Z,26.30
2018-04-18T14:10:24.920Z,26.40
2018-04-18T14:12:52.427Z,26.80
2018-04-18T14:15:21.484Z,27.28
2018-04-18T14:17:49.021Z,26.87
2018-04-18T14:20:16.494Z,27.39
2018-04-18T14:22:43.982Z,28.13
2018-04-18T14:25:11.466Z,27.91
2018-04-18T14:27:39.006Z,28.44
2018-04-18T14:30:06.469Z,29.59
2018-04-18T14:32:35.155Z,30.19
2018-04-18T14:35:02.644Z,30.08
2018-04-18T14:37:30.126Z,29.70
2018-04-18T14:39:57.651Z,28.81
2018-04-18T14:42:25.152Z,28.72
2018-04-18T14:44:52.634Z,28.66
2018-04-18T14:47:20.124Z,29.62
2018-04-18T14:49:47.585Z,29.67
2018-04-18T14:52:15.107Z,29.91
2018-04-18T14:54:42.607Z,29.54
2018-04-18T14:57:10.123Z,30.51
2018-04-18T14:59:37.624Z,30.54
2018-04-18T15:02:05.143Z,30.67
2018-04-18T15:04:32.643Z,31.95
2018-04-18T15:07:00.155Z,30.96
2018-04-18T15:09:27.627Z,31.38
2018-04-18T15:11:55.145Z,31.41
2018-04-18T15:14:22.636Z,31.74
2018-04-18T15:16:50.283Z,31.35
2018-04-18T15:19:17.765Z,31.35
2018-04-18T15:21:45.301Z,30.90
2018-04-18T15:24:12.819Z,30.90
2018-04-18T15:26:40.349Z,31.56
2018-04-18T15:29:07.819Z,31.00
2018-04-18T15:31:35.305Z,30.86
2018-04-18T15:34:02.856Z,31.57
2018-04-18T15:36:30.928Z,31.24
2018-04-18T15:38:58.375Z,31.24
2018-04-18T15:41:25.892Z,31.08
2018-04-18T15:43:53.354Z,32.17
2018-04-18T15:46:20.865Z,32.60
2018-04-18T15:48:48.375Z,32.80
2018-04-18T15:51:15.962Z,32.59
2018-04-18T15:53:43.492Z,31.71
2018-04-18T15:56:11.040Z,32.00
2018-04-18T15:58:38.540Z,31.74
2018-04-18T16:01:06.070Z,31.72
2018-04-18T16:03:33.529Z,32.03
2018-04-18T16:06:01.040Z,32.12
2018-04-18T16:08:28.567Z,30.78
2018-04-18T16:10:56.059Z,31.22
2018-04-18T16:13:23.796Z,31.47
2018-04-18T16:15:51.309Z,31.58
2018-04-18T16:18:18.896Z,30.57
2018-04-18T16:20:46.411Z,30.33
2018-04-18T16:23:13.869Z,30.11
2018-04-18T16:25:41.561Z,29.92
2018-04-18T16:28:09.013Z,30.13
2018-04-18T16:30:40.969Z,30.24
2018-04-18T16:33:09.563Z,30.25
2018-04-18T16:35:37.022Z,29.97
2018-04-18T16:38:04.649Z,29.82
2018-04-18T16:40:32.351Z,29.75
2018-04-18T16:42:59.837Z,30.00
2018-04-18T16:45:27.347Z,29.29
2018-04-18T16:47:54.846Z,28.81
2018-04-18T16:50:22.324Z,27.92
2018-04-18T16:52:49.843Z,28.49
2018-04-18T16:55:17.368Z,28.28
2018-04-18T16:57:44.862Z,28.38
2018-04-18T17:00:12.348Z,27.98
2018-04-18T17:02:39.912Z,27.73
2018-04-18T17:05:07.362Z,27.87
2018-04-18T17:07:34.841Z,27.75
2018-04-18T17:10:02.357Z,27.67
2018-04-18T17:15:03.710Z,27.47
2018-04-18T17:17:31.265Z,27.20
2018-04-18T17:19:58.743Z,26.59
2018-04-18T17:22:26.499Z,26.07
2018-04-18T17:24:53.972Z,25.46
2018-04-18T17:27:21.491Z,24.88
2018-04-18T17:29:48.978Z,24.65
2018-04-18T17:32:16.482Z,23.96
2018-04-18T17:34:44.619Z,23.58
2018-04-18T17:37:12.210Z,23.11
2018-04-18T17:39:39.813Z,22.89
2018-04-18T17:42:07.456Z,22.43
2018-04-18T17:44:35.826Z,22.15
2018-04-18T17:47:03.332Z,21.85
2018-04-18T17:49:30.823Z,21.62
2018-04-18T17:51:58.389Z,21.44
2018-04-18T17:54:25.882Z,21.32
2018-04-18T17:56:53.378Z,21.16
2018-04-18T17:59:20.928Z,20.94
2018-04-18T18:01:48.422Z,20.90
2018-04-18T18:04:15.964Z,20.72
2018-04-18T18:06:43.447Z,20.53
2018-04-18T18:09:10.915Z,20.41
2018-04-18T18:11:38.550Z,20.28
2018-04-18T18:14:06.016Z,20.20
2018-04-18T18:16:33.501Z,20.04
2018-04-18T18:19:01.070Z,19.95
2018-04-18T18:21:28.598Z,19.85
2018-04-18T18:23:56.087Z,19.72
2018-04-18T18:26:23.647Z,19.65
2018-04-18T18:28:51.127Z,19.62
2018-04-18T18:31:18.657Z,19.53
2018-04-18T18:33:46.159Z,19.39
2018-04-18T18:36:13.709Z,19.28
2018-04-18T18:38:41.208Z,19.14
2018-04-18T18:41:08.760Z,19.08
2018-04-18T18:43:36.293Z,19.05
2018-04-18T18:46:03.775Z,18.93
2018-04-18T18:48:31.374Z,18.86
2018-04-18T18:50:58.945Z,18.74
2018-04-18T18:53:26.442Z,18.61
2018-04-18T18:55:54.540Z,18.54
2018-04-18T18:58:22.034Z,18.45
2018-04-18T19:00:49.502Z,18.38
2018-04-18T19:03:16.991Z,18.32
2018-04-18T19:05:44.479Z,18.21
2018-04-18T19:08:11.992Z,18.10
2018-04-18T19:10:39.506Z,18.06
2018-04-18T19:13:07.050Z,18.05
2018-04-18T19:15:34.583Z,18.00
2018-04-18T19:18:02.075Z,18.03
2018-04-18T19:20:29.552Z,17.99
2018-04-18T19:22:57.074Z,17.95
2018-04-18T19:25:24.575Z,17.89
2018-04-18T19:27:52.069Z,17.87
2018-04-18T19:30:19.621Z,17.85
2018-04-18T19:32:47.153Z,17.79
2018-04-18T19:35:14.830Z,17.76
2018-04-18T19:37:42.539Z,17.69
2018-04-18T19:40:10.068Z,17.72
2018-04-18T19:42:38.017Z,17.78
2018-04-18T19:45:06.963Z,17.73
2018-04-18T19:47:34.657Z,17.78
2018-04-18T19:50:02.333Z,17.69
2018-04-18T19:52:30.757Z,17.59
2018-04-18T19:54:58.353Z,17.61
2018-04-18T19:57:26.096Z,17.57
2018-04-18T19:59:53.777Z,17.65
2018-04-18T20:02:21.418Z,17.65
2018-04-18T20:04:49.182Z,17.80
2018-04-18T20:07:16.787Z,17.86
2018-04-18T20:09:44.404Z,17.92
2018-04-18T20:12:12.024Z,17.82
2018-04-18T20:14:41.006Z,17.86
2018-04-18T20:17:08.642Z,17.78
2018-04-18T20:19:36.388Z,17.61
2018-04-18T20:22:04.144Z,17.45
2018-04-18T20:24:31.668Z,17.34
2018-04-18T20:27:03.022Z,17.19
2018-04-18T20:29:31.848Z,17.10
2018-04-18T20:32:00.347Z,17.09
2018-04-18T20:34:27.990Z,17.00
2018-04-18T20:36:55.538Z,16.98
2018-04-18T20:39:23.112Z,16.91
2018-04-18T20:41:54.691Z,16.82
2018-04-18T20:44:22.327Z,16.72
2018-04-18T20:46:53.267Z,16.65
2018-04-18T20:49:20.971Z,16.55
2018-04-18T20:51:48.633Z,16.47
2018-04-18T20:54:16.268Z,16.35
2018-04-18T20:56:44.399Z,16.25
2018-04-18T20:59:11.900Z,16.16
2018-04-18T21:01:39.515Z,16.10
2018-04-18T21:04:07.128Z,16.05
2018-04-18T21:06:34.767Z,16.08
2018-04-18T21:09:02.439Z,16.08
2018-04-18T21:11:35.539Z,16.08
2018-04-18T21:14:03.204Z,16.06
2018-04-18T21:16:31.774Z,16.05
2018-04-18T21:18:59.418Z,15.96
2018-04-18T21:21:26.998Z,16.00
2018-04-18T21:23:54.712Z,16.01
2018-04-18T21:26:22.476Z,15.98
2018-04-18T21:28:50.010Z,16.08
2018-04-18T21:31:17.563Z,16.08
2018-04-18T21:33:45.143Z,16.19
2018-04-18T21:36:12.655Z,16.26
2018-04-18T21:38:40.188Z,16.35
2018-04-18T21:41:07.971Z,16.43
2018-04-18T21:43:35.557Z,16.25
2018-04-18T21:46:03.046Z,16.28
2018-04-18T21:48:31.497Z,16.22
2018-04-18T21:50:59.134Z,16.16
2018-04-18T21:53:26.629Z,16.22
2018-04-18T21:55:54.123Z,16.18
2018-04-18T21:58:21.633Z,16.25
2018-04-18T22:00:49.123Z,16.31
2018-04-18T22:03:16.615Z,16.18
2018-04-18T22:05:44.135Z,16.16
2018-04-18T22:08:11.616Z,16.13
2018-04-18T22:10:39.132Z,16.04
2018-04-18T22:13:06.645Z,15.84
2018-04-18T22:15:36.014Z,15.86
2018-04-18T22:18:04.820Z,15.76
2018-04-18T22:20:33.515Z,15.78
2018-04-18T22:23:01.040Z,15.76
2018-04-18T22:25:28.810Z,15.73
2018-04-18T22:27:56.314Z,15.70
2018-04-18T22:30:23.844Z,15.69
2018-04-18T22:32:51.369Z,15.59
2018-04-18T22:35:18.959Z,15.57
2018-04-18T22:37:46.503Z,15.50
2018-04-18T22:40:13.971Z,15.37
2018-04-18T22:42:41.460Z,15.30
2018-04-18T22:45:08.962Z,15.22
2018-04-18T22:47:36.446Z,15.18
2018-04-18T22:50:04.832Z,15.20
2018-04-18T22:52:32.390Z,15.09
2018-04-18T22:55:00.327Z,14.99
2018-04-18T22:57:27.825Z,14.85
2018-04-18T22:59:55.352Z,14.92
2018-04-18T23:02:22.828Z,14.84
2018-04-18T23:04:50.422Z,14.74
2018-04-18T23:07:17.956Z,14.82
2018-04-18T23:09:45.463Z,14.75
2018-04-18T23:12:13.264Z,14.66
2018-04-18T23:14:40.744Z,14.55
2018-04-18T23:17:08.584Z,14.44
2018-04-18T23:19:36.219Z,14.35
2018-04-18T23:22:04.492Z,14.28
2018-04-18T23:24:32.565Z,14.20
2018-04-18T23:27:00.104Z,14.10
2018-04-18T23:29:27.779Z,14.04
2018-04-18T23:31:55.297Z,14.06
2018-04-18T23:34:22.764Z,14.00
2018-04-18T23:36:50.250Z,13.89
2018-04-18T23:39:17.795Z,13.76
2018-04-18T23:41:45.285Z,13.65
2018-04-18T23:44:12.848Z,13.62
2018-04-18T23:46:40.332Z,13.59
2018-04-18T23:49:07.802Z,13.57
2018-04-18T23:51:35.328Z,13.56
2018-04-18T23:54:02.814Z,13.51
2018-04-18T23:56:30.870Z,13.42
2018-04-18T23:58:58.347Z,13.35
